Ride Results

Mudgee (22-05-2005)
Ride distance: 80.0 km

Outcomes - Mudgee (22-05-2005)
Division No. of Entries Retired / DNE Completed Withdrawn Ineligible V/O Percentage Completed
HW 28 - 12 3 - 13 42.86%
MW 32 - 21 2 - 9 65.63%
LW 26 - 20 2 - 4 76.92%
JN 6 - 4 - - 2 66.67%
Totals 92 - 57 7 - 28 61.96%
Results - Mudgee (22-05-2005)
No. Rider Horse Place Time Leg Speeds Total
Km/Hr
H/R bpm
Heavyweight
719 Steve Brisbane Jon De Le Obcession 1 4:16:00 15.4, 23.7 18.75 48, 50, 54 (Avg:52)
700 Jason Duff Currowan Sabah 2 5:07:00 12.9, 19.8 15.64 40, 39, 37 (Avg:38)
710 Scott Davenport Alhambra Pierrot 3 6:00:00 11.4, 15.9 13.33 34, 35, 39 (Avg:37)
727 Kristy Waddell Box Hill Zac 4 6:01:00 11.8, 15.1 13.30 35, 46, 42 (Avg:44)
720 Steven Haasz Jon-De-Le Begin 5 6:08:00 11.8, 14.4 13.04 35, 48, 47 (Avg:47)
702 Rene Karrer Cherrytree Dominica 6 6:11:00 10.8, 15.9 12.94 32, 40, 42 (Avg:41)
706 Leanne Le Claire Aloha Kamahl 7 6:12:00 11.1, 15.3 12.90 36, 41, 48 (Avg:44)
713 Peter Norman Bellarine Bozo 8 6:14:00 10.9, 15.5 12.83 39, 40, 44 (Avg:42)
707 Rod Mitchell Jasper 9 6:31:00 10.4, 14.8 12.28 37, 45, 54 (Avg:49)
728 Damien Bonham Box Hill Saintly 10 6:50:00 9.6, 14.9 11.71 27, 33, 43 (Avg:38)
705 John King Touch Of Maheb 11 7:47:00 8.3, 13.3 10.28 30, 36, 39 (Avg:37)
725 Ken Sandford Abrock Shadow 12 7:50:00 8.7, 12.1 10.21 39, 46, 59 (Avg:52)
712 Peter Cooper Anabriar Khaboul Lame L2 0:00:00 10.9, 15.9 - 42, 41, 46 (Avg:43)
730 Raymond Smith Stilton Farm Portia Heart Rate L2 0:00:00 9.1, 11.9 - 43, 51, 65 (Avg:58)
701 Virginia Blain Salam Mezzlah Lame L1 0:00:00 14.2 - 37, 44 (Avg:44)
717 Steve Brooks Harmere Lahsa Lame L1 0:00:00 13.3 - 39, 44 (Avg:44)
721 Eric Cauchi Kriya Withdrawn L1 0:00:00 - - 36, 49 (Avg:49)
723 Neil Clarkson Espirit Sherwood Lame L1 0:00:00 10.2 - 36, 37 (Avg:37)
708 Len Derkacz Torryburn Rahal Lame L1 0:00:00 11.7 - 32, 45 (Avg:45)
716 Gavin Groth Cherox Samtam Withdrawn L1 0:00:00 - - 39, 40 (Avg:40)
724 Greg Hamilton Tristram Abu Youm Lame L1 0:00:00 8.2 - 42, 40 (Avg:40)
714 Jennifer Hargraves Kaaren Azire Celebrity Withdrawn L1 0:00:00 - - 34, 38 (Avg:38)
709 Wayne Johnson Tarrangower Crecendo Lame L1 0:00:00 17.0 - 33, 44 (Avg:44)
722 Brad Jones Bey Espirit Lame L1 0:00:00 10.2 - 55, 46 (Avg:46)
718 Kristianne Kalen Carnarvon Kasserine Magic Lame L1 0:00:00 16.2 - 33, 44 (Avg:44)
726 Alan Mackinder Bartavia Lame L1 0:00:00 8.5 - 34, 36 (Avg:36)
729 Woody Pilley Pancho Lame L1 0:00:00 8.2 - 36, 44 (Avg:44)
715 Allan Watts Regal Crusader Lame P/R 0:00:00 - - 36
Middleweight
32 Mark Harvey Judstan Sharwayn 1 4:01:00 16.2, 25.8 19.92 40, 53, 49 (Avg:51)
3 Pauline Brewer Malu Vale Jahaan 2 4:09:00 15.6, 24.9 19.28 36, 48, 46 (Avg:47)
17 Rene Schipper Pactberk 2 4:09:00 15.7, 24.7 19.28 36, 48, 45 (Avg:46)
31 Paul Keyes Chip Chase Aramis 4 4:26:00 13.8, 25.8 18.05 39, 39, 44 (Avg:41)
18 Marita Rifai Premium 5 4:53:00 14.6, 18.6 16.38 36, 44, 46 (Avg:45)
22 Allison Knihinicki Tuldar Jonathon 6 5:13:00 12.2, 20.5 15.34 32, 39, 44 (Avg:41)
10 Peter Strickland Emir De Sombre 7 5:42:00 11.9, 16.9 14.04 34, 42, 37 (Avg:39)
26 Margot Shore Arnie 8 6:09:00 12.8, 13.1 13.01 28, 40, 44 (Avg:42)
15 Catherine Chapman Tarkhim Shah Deserts Fyre 9 6:11:00 10.8, 15.9 12.94 39, 48, 50 (Avg:49)
9 Renee Kirk Cherox Assassin 10 6:12:00 11.1, 15.3 12.90 35, 50, 51 (Avg:50)
1 Carol Major Major Luke 10 6:12:00 10.8, 15.8 12.90 38, 39, 43 (Avg:41)
11 Karen Rhodes Shadow 10 6:12:00 10.3, 17.1 12.90 36, 37, 42 (Avg:39)
27 Gaye Withers Sandfly 13 6:36:00 10.0, 15.2 12.12 37, 36, 36 (Avg:36)
20 Peter Brown Heste Arabique Waterloo 14 6:42:00 10.0, 14.6 11.94 42, 51, 55 (Avg:53)
21 Stephanie Grolimund Aloha Vikara 14 6:42:00 10.0, 14.6 11.94 29, 39, 49 (Avg:44)
29 Lyn Dillon Hamamas Vivaldi 16 7:03:00 9.1, 14.9 11.35 36, 48, 49 (Avg:48)
30 Tracy Haack Bandeisha 17 7:42:00 9.1, 11.9 10.39 44, 44, 45 (Avg:44)
24 Naomi Djuric Cedar Ridge Astro 18 7:48:00 8.5, 12.8 10.26 40, 46, 44 (Avg:45)
23 Jenny Sandford Wicked Wishes 19 7:50:00 8.7, 12.1 10.21 28, 36, 41 (Avg:38)
28 Stacy Burke Devi 20 8:05:00 8.0, 12.9 9.90 40, 39, 48 (Avg:43)
8 Bernice King Doralmir Park Nicholas 21 8:17:00 8.3, 11.4 9.66 30, 44, 44 (Avg:44)
25 Sonia Bonham Box Hill Missy Lame L2 0:00:00 9.6, 14.9 - 40, 50, 60 (Avg:55)
6 Kim Corliss Miss Malara Cindaberry Lame L2 0:00:00 9.1, 12.0 - 35, 48, 48 (Avg:48)
19 Katrina Bodewes Booralie Silver Applause Withdrawn L1 0:00:00 - - 44, 40 (Avg:40)
14 Jas Crafter Aussie Delight Withdrawn L1 0:00:00 - - 36, 44 (Avg:44)
13 Gail Fisher Mindari Dark Jewel Lame L1 0:00:00 13.3 - 32, 41 (Avg:41)
16 Rhiannon Groth Bronte Lame L1 0:00:00 9.3 - 36, 45 (Avg:45)
2 Luke Harvey Hammer Lame L1 0:00:00 16.2 - 32, 42 (Avg:42)
12 Jessica Richards Clovelly Park Milawa Lame L1 0:00:00 7.8 - 37, 44 (Avg:44)
7 Brett Willis Kairo Lame L1 0:00:00 12.8 - 39, 44 (Avg:44)
4 Tom Bouzianis Fairlight Shakira Lame P/R 0:00:00 - - 36
5 Susan Pritchard Cherox Aldaniti Lame P/R 0:00:00 - - 36
Lightweight
775 Brad Dillon Ebonglen Holmegaard 1 4:01:00 16.9, 24.2 19.92 38, 46, 53 (Avg:49)
751 Neroli Mitchell- Cooper Bilbo 2 4:12:00 14.8, 26.6 19.05 36, 40, 41 (Avg:40)
736 Gloria Mills Glendos Sabodie 3 4:16:00 16.2, 22.2 18.75 36, 40, 39 (Avg:39)
754 Shelly Ison Valinor Park Opal 4 4:55:00 13.7, 19.9 16.27 42, 43, 48 (Avg:45)
743 Kate Campbell Carlwood Park Sam 5 5:07:00 12.8, 19.9 15.64 36, 45, 56 (Avg:50)
777 Leigh Waddell Box Hill Tonderburine 6 6:01:00 11.8, 15.1 13.30 36, 41, 46 (Avg:43)
776 Sue Todd Shamara 7 6:04:00 12.8, 13.5 13.19 35, 48, 49 (Avg:48)
772 Julie Scruse Danjera Kadhir 8 6:14:00 10.8, 15.6 12.83 34, 40, 44 (Avg:42)
745 Sara Beckinsale Taabu 9 6:27:00 10.8, 14.5 12.40 36, 41, 44 (Avg:42)
737 Pele Cannon Out of The Blue 10 6:30:00 9.9, 15.9 12.31 32, 40, 48 (Avg:44)
746 Robin Gossip Wesswood Willow 11 6:36:00 10.1, 15.0 12.12 29, 44, 43 (Avg:43)
741 Linda Logan Follydown Topaz 12 7:05:00 10.0, 12.9 11.29 34, 41, 48 (Avg:44)
747 Roxanne Rowe Tuldar Dhabai Rose 12 7:05:00 8.1, 18.1 11.29 32, 40, 42 (Avg:41)
753 Kimaleen John Newbridge Nasuri 14 7:08:00 9.0, 14.6 11.21 35, 37, 46 (Avg:41)
774 Kerry Reveley Rathowen On Parade 14 7:08:00 10.0, 12.6 11.21 36, 45, 57 (Avg:51)
750 Sue Richards Freddie 14 7:08:00 9.2, 14.2 11.21 35, 44, 44 (Avg:44)
740 Jenny Vandervelden Yoffie 17 7:28:00 9.4, 12.4 10.71 48, 44, 48 (Avg:46)
752 Dianne Luker Topline Sophine 18 7:41:00 9.1, 11.9 10.41 34, 37, 47 (Avg:42)
778 Kate Pilley Stretch 19 8:06:00 8.2, 12.3 9.88 44, 52, 56 (Avg:54)
779 Allana Rempel Claremont Park Breanne 19 8:06:00 8.0, 12.8 9.88 36, 55, 54 (Avg:54)
773 Julie Brooks Aloha Byshara Lame L2 0:00:00 12.6, 17.1 - 34, 44, 46 (Avg:45)
739 Pam Markham Junack Octavia Lame L2 0:00:00 9.4, 12.4 - 42, 48, 58 (Avg:53)
748 Petrina Besedic Bula Park Tristrim Heart Rate L1 0:00:00 10.0 - 38, 58 (Avg:58)
780 Ruth Green Fairview Shaklas Bravado Withdrawn L1 0:00:00 - - 48, 52 (Avg:52)
738 Lisa Keyes Coolahlee Park Sarah Withdrawn L1 0:00:00 - - 32, 38 (Avg:38)
742 Sonya Nicholls Worobil Koradji Lame P/R 0:00:00 - - 33
Junior
789 Allix Jones Shellal Cattle King Flyte 1 4:29:00 13.9, 24.7 17.84 40, 52, 50 (Avg:51)
786 Rochelle Knihinicki Tuldar Ronnie 2 5:13:00 12.2, 20.5 15.34 33, 51, 52 (Avg:51)
788 Hannah Legge Harley 3 6:14:00 10.8, 15.6 12.83 36, 39, 41 (Avg:40)
790 Zoe Locke Balara Kymono 4 7:03:00 9.1, 14.9 11.35 36, 41, 47 (Avg:44)
785 Victoria Pellizari Wantley Honey Gold Lame L2 0:00:00 10.8, 18.6 - 32, 44, 45 (Avg:44)
787 Annie Corless Naibara Park Kareen Lame L1 0:00:00 9.0 - 36, 43 (Avg:43)